Time;durP1;ratioP1;P1;durP2;ratioP2;P2;SDS_P1;SDS_P2;PMS_P1;PMS_P2;Temp;Humidity;BMP_temperature;BMP_pressure;BME280_temperature;BME280_humidity;BME280_pressure;Samples;Min_cycle;Max_cycle;Signal;HPM_P1;HPM_P2
2023/10/24 00:01:08;;;;;;;3.17;0.50;;;;;;;10.49;100.00;98678.03;5037465;28;20052;-92
2023/10/24 00:03:34;;;;;;;1.15;0.50;;;;;;;10.51;100.00;98676.00;5056901;28;20062;-92
2023/10/24 00:05:59;;;;;;;1.73;0.52;;;;;;;10.54;100.00;98670.34;5048956;28;20444;-91
2023/10/24 00:08:25;;;;;;;7.28;0.50;;;;;;;10.50;100.00;98663.81;5052296;28;20037;-91
2023/10/24 00:11:02;;;;;;;6.15;0.68;;;;;;;10.59;100.00;98671.63;5039629;28;20020;-91
2023/10/24 00:13:29;;;;;;;5.70;0.70;;;;;;;10.53;100.00;98662.63;5033617;28;20032;-92
2023/10/24 00:15:54;;;;;;;5.07;0.57;;;;;;;10.53;100.00;98674.00;5034826;28;20476;-92
2023/10/24 00:18:20;;;;;;;5.78;0.40;;;;;;;10.53;100.00;98663.44;5054504;28;20036;-92
2023/10/24 00:20:46;;;;;;;8.02;0.50;;;;;;;10.54;100.00;98667.72;5033727;28;20048;-82
2023/10/24 00:23:12;;;;;;;2.17;0.60;;;;;;;10.54;100.00;98664.28;5037041;28;20547;-90
2023/10/24 00:25:37;;;;;;;2.17;0.50;;;;;;;10.54;100.00;98666.91;5031234;28;20086;-91
2023/10/24 00:28:03;;;;;;;3.90;0.43;;;;;;;10.54;100.00;98666.91;5054438;28;20055;-92
2023/10/24 00:30:29;;;;;;;3.00;0.50;;;;;;;10.55;100.00;98673.81;5041346;28;20341;-92
2023/10/24 00:32:54;;;;;;;5.88;0.70;;;;;;;10.54;100.00;98662.44;5068120;28;20028;-91
2023/10/24 00:35:20;;;;;;;2.40;0.50;;;;;;;10.53;100.00;98666.09;5036425;28;20068;-90
2023/10/24 00:37:46;;;;;;;6.00;0.47;;;;;;;10.52;100.00;98659.19;5035796;28;20036;-89
2023/10/24 00:40:12;;;;;;;1.65;0.50;;;;;;;10.52;100.00;98661.81;5051783;28;20040;-88
2023/10/24 00:42:38;;;;;;;3.22;0.50;;;;;;;10.50;100.00;98653.25;5043228;28;20036;-91
2023/10/24 00:45:05;;;;;;;3.05;0.52;;;;;;;10.51;100.00;98654.09;5049629;28;20365;-92
2023/10/24 00:47:32;;;;;;;4.95;0.60;;;;;;;10.49;100.00;98653.44;5048702;28;20612;-92
2023/10/24 00:49:58;;;;;;;4.05;0.77;;;;;;;10.49;100.00;98653.44;5057227;28;20029;-90
2023/10/24 00:52:25;;;;;;;5.13;1.23;;;;;;;10.48;100.00;98643.91;5038973;28;20048;-91
2023/10/24 00:54:53;;;;;;;0.55;0.20;;;;;;;10.45;100.00;98650.31;5069304;28;20037;-91
2023/10/24 00:57:19;;;;;;;11.88;0.95;;;;;;;10.47;100.00;98655.44;5037170;28;20047;-91
2023/10/24 00:59:45;;;;;;;4.28;0.32;;;;;;;10.46;100.00;98652.00;5052770;28;20037;-90
2023/10/24 01:02:12;;;;;;;1.75;0.40;;;;;;;10.44;100.00;98651.34;5038778;28;20059;-91
2023/10/24 01:04:39;;;;;;;4.03;0.65;;;;;;;10.48;100.00;98643.91;5046071;28;20025;-91
2023/10/24 01:07:05;;;;;;;2.80;0.70;;;;;;;10.47;100.00;98640.44;5055399;28;20392;-91
2023/10/24 01:09:31;;;;;;;8.48;0.50;;;;;;;10.47;100.00;98637.78;5054323;28;20025;-92
2023/10/24 01:11:57;;;;;;;9.73;0.98;;;;;;;10.47;100.00;98629.03;5038493;28;20028;-91
2023/10/24 01:14:24;;;;;;;5.47;0.60;;;;;;;10.44;100.00;98617.00;5048994;28;20040;-92
2023/10/24 01:16:49;;;;;;;4.95;0.45;;;;;;;10.40;100.00;98626.31;5067431;28;20060;-91
2023/10/24 01:19:15;;;;;;;6.88;0.75;;;;;;;10.37;100.00;98622.22;5084154;28;20037;-91
2023/10/24 01:21:45;;;;;;;3.50;0.50;;;;;;;10.39;100.00;98622.03;5057586;28;20044;-90
2023/10/24 01:24:16;;;;;;;6.30;0.50;;;;;;;10.35;100.00;98612.84;5053190;28;20036;-91
2023/10/24 01:26:43;;;;;;;4.50;0.57;;;;;;;10.30;100.00;98608.13;5058232;28;20032;-92
2023/10/24 01:29:10;;;;;;;3.13;0.57;;;;;;;10.29;100.00;98612.59;5071723;28;20052;-92
2023/10/24 01:31:36;;;;;;;5.93;0.60;;;;;;;10.26;100.00;98609.50;5046530;28;20042;-92
2023/10/24 01:34:02;;;;;;;6.53;0.60;;;;;;;10.25;100.00;98602.59;5068585;28;20380;-91
2023/10/24 01:36:28;;;;;;;3.60;0.68;;;;;;;10.24;100.00;98599.13;5048979;28;20044;-92
2023/10/24 01:38:54;;;;;;;6.47;0.60;;;;;;;10.22;100.00;98609.09;5037396;28;20056;-91
2023/10/24 01:41:20;;;;;;;2.92;0.57;;;;;;;10.20;100.00;98604.97;5057152;28;20635;-90
2023/10/24 01:43:46;;;;;;;4.85;0.73;;;;;;;10.18;100.00;98615.72;5054459;28;20065;-90
2023/10/24 01:46:12;;;;;;;6.32;0.47;;;;;;;10.18;100.00;98610.44;5065873;28;20142;-91
2023/10/24 01:48:38;;;;;;;6.97;0.63;;;;;;;10.15;100.00;98611.66;5050985;28;20078;-91
2023/10/24 01:51:03;;;;;;;3.30;0.40;;;;;;;10.14;100.00;98598.63;5036947;28;20431;-91
2023/10/24 01:53:29;;;;;;;4.32;0.60;;;;;;;10.11;100.00;98599.00;5039621;28;20403;-93
2023/10/24 01:55:55;;;;;;;4.63;0.70;;;;;;;10.09;100.00;98609.75;5051569;28;20036;-90
2023/10/24 01:58:20;;;;;;;7.57;1.17;;;;;;;10.10;100.00;98613.19;5027739;28;20032;-92
2023/10/24 02:00:46;;;;;;;2.58;0.47;;;;;;;10.10;100.00;98603.47;5056997;28;20673;-90
2023/10/24 02:03:12;;;;;;;3.92;0.70;;;;;;;10.09;100.00;98607.13;5052050;28;20032;-91
2023/10/24 02:05:39;;;;;;;2.30;0.50;;;;;;;10.05;100.00;98598.75;5046486;28;20072;-90
2023/10/24 02:08:05;;;;;;;2.63;0.70;;;;;;;10.05;100.00;98596.09;5027023;28;20054;-90
2023/10/24 02:10:30;;;;;;;2.67;0.47;;;;;;;10.02;100.00;98599.13;5034855;28;20040;-91
2023/10/24 02:12:56;;;;;;;8.45;0.65;;;;;;;9.97;100.00;98600.69;5036160;28;20043;-93
2023/10/24 02:15:22;;;;;;;6.95;0.73;;;;;;;9.95;100.00;98595.59;5047886;28;20032;-92
2023/10/24 02:17:48;;;;;;;3.53;0.47;;;;;;;9.93;100.00;98606.34;5055710;28;20059;-91
2023/10/24 02:20:13;;;;;;;3.90;0.80;;;;;;;9.91;100.00;98610.16;5055458;28;20502;-90
2023/10/24 02:22:42;;;;;;;5.68;0.60;;;;;;;9.90;100.00;98603.25;5039604;28;20119;-91
2023/10/24 02:25:08;;;;;;;3.33;0.55;;;;;;;9.91;100.00;98602.22;5056779;28;20471;-85
2023/10/24 02:27:35;;;;;;;5.45;0.82;;;;;;;9.93;100.00;98601.06;5029001;28;20063;-91
2023/10/24 02:30:01;;;;;;;5.30;0.60;;;;;;;9.96;100.00;98599.88;5054674;28;20031;-90
2023/10/24 02:32:28;;;;;;;4.95;0.50;;;;;;;9.96;100.00;98593.75;5046590;28;20126;-91
2023/10/24 02:34:53;;;;;;;2.50;0.63;;;;;;;9.97;100.00;98598.84;5053010;28;20093;-91
2023/10/24 02:37:20;;;;;;;4.97;0.70;;;;;;;10.01;100.00;98594.84;5037576;28;20043;-90
2023/10/24 02:39:49;;;;;;;6.10;0.70;;;;;;;10.03;100.00;98602.59;5047761;28;20032;-90
2023/10/24 02:42:15;;;;;;;3.55;1.08;;;;;;;10.05;100.00;98597.91;5043707;28;20051;-91
2023/10/24 02:44:41;;;;;;;2.75;0.50;;;;;;;10.07;100.00;98588.00;5057253;28;20536;-91
2023/10/24 02:47:06;;;;;;;5.70;0.65;;;;;;;10.10;100.00;98595.53;5061721;28;20115;-91
2023/10/24 02:49:32;;;;;;;3.83;0.50;;;;;;;10.10;100.00;98584.16;5060716;28;20036;-90
2023/10/24 02:51:58;;;;;;;4.90;0.50;;;;;;;10.07;100.00;98584.53;5042854;28;20099;-91
2023/10/24 02:54:24;;;;;;;4.25;0.50;;;;;;;10.04;100.00;98575.16;5053422;28;20063;-90
2023/10/24 02:56:50;;;;;;;0.90;0.52;;;;;;;10.06;100.00;98581.09;5052943;28;20376;-91
2023/10/24 02:59:16;;;;;;;4.25;0.93;;;;;;;10.09;100.00;98579.88;5042026;28;20127;-90
2023/10/24 03:01:42;;;;;;;3.67;0.43;;;;;;;10.12;100.00;98577.69;5042011;28;20396;-91
2023/10/24 03:04:08;;;;;;;2.92;0.50;;;;;;;10.12;100.00;98587.44;5054439;28;20076;-92
2023/10/24 03:06:33;;;;;;;4.43;0.75;;;;;;;10.13;100.00;98589.88;5060222;28;20042;-91
2023/10/24 03:09:00;;;;;;;3.85;0.73;;;;;;;10.15;100.00;98589.69;5051373;28;20036;-92
2023/10/24 03:11:26;;;;;;;7.35;0.80;;;;;;;10.10;100.00;98584.97;5060456;28;20438;-91
2023/10/24 03:13:53;;;;;;;5.28;0.80;;;;;;;10.12;100.00;98582.97;5044450;28;20039;-91
2023/10/24 03:16:20;;;;;;;4.32;0.90;;;;;;;10.05;100.00;98582.91;5076571;28;20038;-91
2023/10/24 03:18:45;;;;;;;8.88;1.45;;;;;;;10.04;100.00;98580.44;5078789;28;20032;-91
2023/10/24 03:21:12;;;;;;;6.22;2.20;;;;;;;10.03;100.00;98574.34;5058753;28;20682;-91
2023/10/24 03:23:40;;;;;;;6.38;2.58;;;;;;;10.05;100.00;98569.72;5053184;28;20080;-91
2023/10/24 03:26:06;;;;;;;6.28;0.95;;;;;;;10.07;100.00;98577.44;5070245;28;20028;-91
2023/10/24 03:28:33;;;;;;;1.23;0.60;;;;;;;10.06;100.00;98581.09;5069594;28;20054;-91
2023/10/24 03:31:06;;;;;;;3.10;0.60;;;;;;;10.09;100.00;98580.72;5038562;28;20029;-92
2023/10/24 03:33:33;;;;;;;7.45;0.65;;;;;;;10.03;100.00;98579.63;5041916;28;20035;-90
2023/10/24 03:36:00;;;;;;;8.82;1.05;;;;;;;10.01;100.00;98570.28;5053162;28;20062;-92
2023/10/24 03:38:27;;;;;;;6.78;0.80;;;;;;;10.04;100.00;98572.53;5061740;28;20521;-92
2023/10/24 03:40:53;;;;;;;6.40;2.47;;;;;;;10.05;100.00;98575.00;5058274;28;20058;-90
2023/10/24 03:43:20;;;;;;;2.20;0.70;;;;;;;10.11;100.00;98577.88;5088010;28;20116;-91
2023/10/24 03:45:46;;;;;;;10.38;1.17;;;;;;;10.11;100.00;98568.16;5053454;28;20028;-92
2023/10/24 03:48:12;;;;;;;6.00;0.90;;;;;;;10.14;100.00;98567.78;5056101;28;20032;-92
2023/10/24 03:50:38;;;;;;;2.65;0.88;;;;;;;10.18;100.00;98562.91;5069632;28;20131;-91
2023/10/24 03:53:04;;;;;;;6.28;1.30;;;;;;;10.21;100.00;98564.38;5041427;28;20096;-91
2023/10/24 03:55:31;;;;;;;7.90;1.00;;;;;;;10.24;100.00;98564.81;5059294;28;20468;-91
2023/10/24 03:57:57;;;;;;;1.98;0.55;;;;;;;10.23;100.00;98559.72;5057082;28;20035;-87
2023/10/24 04:00:23;;;;;;;3.22;0.80;;;;;;;10.24;100.00;98558.72;5039610;28;20393;-90
2023/10/24 04:02:52;;;;;;;6.43;1.63;;;;;;;10.29;100.00;98562.41;5039150;28;20032;-91
2023/10/24 04:05:18;;;;;;;6.25;1.10;;;;;;;10.26;100.00;98560.16;5042883;28;20491;-91
2023/10/24 04:07:44;;;;;;;8.10;0.70;;;;;;;10.23;100.00;98549.16;5039209;28;20040;-91
2023/10/24 04:10:12;;;;;;;7.10;0.77;;;;;;;10.22;100.00;98553.63;5054954;28;20608;-91
2023/10/24 04:12:37;;;;;;;9.13;1.70;;;;;;;10.11;100.00;98548.84;5072031;28;20067;-91
2023/10/24 04:15:05;;;;;;;7.50;1.90;;;;;;;10.03;100.00;98555.88;5030511;28;20032;-91
2023/10/24 04:17:34;;;;;;;7.53;0.80;;;;;;;9.99;100.00;98545.88;5030649;28;20037;-91
2023/10/24 04:20:01;;;;;;;8.27;0.93;;;;;;;9.88;100.00;98549.81;5036778;28;20032;-91
2023/10/24 04:22:27;;;;;;;7.13;0.70;;;;;;;9.82;100.00;98545.28;5057778;28;20052;-90
2023/10/24 04:24:53;;;;;;;4.78;1.00;;;;;;;9.80;100.00;98550.75;5057814;28;20077;-91
2023/10/24 04:27:19;;;;;;;6.00;1.08;;;;;;;9.79;100.00;98543.88;5058670;28;20077;-91
2023/10/24 04:29:46;;;;;;;7.32;1.00;;;;;;;9.80;100.00;98542.84;5046738;28;20028;-90
2023/10/24 04:32:12;;;;;;;3.03;1.00;;;;;;;9.77;100.00;98545.84;5056937;28;20036;-90
2023/10/24 04:34:38;;;;;;;3.95;0.90;;;;;;;9.72;100.00;98545.59;5071281;28;20459;-91
2023/10/24 04:37:04;;;;;;;51.92;1.65;;;;;;;9.67;100.00;98543.50;5056387;28;20035;-91
2023/10/24 04:39:30;;;;;;;5.95;1.00;;;;;;;9.60;100.00;98532.91;5051233;28;20036;-91
2023/10/24 04:41:56;;;;;;;9.55;1.27;;;;;;;9.55;100.00;98546.66;5036776;28;20472;-91
2023/10/24 04:44:22;;;;;;;2.70;0.85;;;;;;;9.58;100.00;98552.53;5071481;28;20063;-91
2023/10/24 04:46:48;;;;;;;4.40;1.15;;;;;;;9.62;100.00;98556.47;5040041;28;20050;-91
2023/10/24 04:49:15;;;;;;;4.55;0.93;;;;;;;9.62;100.00;98538.00;5052824;28;20044;-91
2023/10/24 04:51:42;;;;;;;8.13;1.23;;;;;;;9.55;100.00;98540.53;5074503;28;20073;-91
2023/10/24 04:54:08;;;;;;;1.00;0.80;;;;;;;9.51;100.00;98537.47;5033626;28;20032;-91
2023/10/24 04:56:34;;;;;;;11.40;1.40;;;;;;;9.48;100.00;98535.19;5058980;28;20068;-92
2023/10/24 04:59:00;;;;;;;3.88;1.10;;;;;;;9.45;100.00;98527.66;5037052;28;20075;-91
2023/10/24 05:01:25;;;;;;;10.48;0.93;;;;;;;9.43;100.00;98524.38;5038309;28;20036;-91
2023/10/24 05:03:51;;;;;;;10.65;1.13;;;;;;;9.39;100.00;98523.13;5054250;28;20044;-91
2023/10/24 05:06:17;;;;;;;4.72;0.90;;;;;;;9.37;100.00;98528.56;5050329;28;20059;-91
2023/10/24 05:08:42;;;;;;;5.50;0.93;;;;;;;9.39;100.00;98525.75;5051087;28;20366;-91
2023/10/24 05:11:08;;;;;;;6.50;1.02;;;;;;;9.39;100.00;98526.56;5067951;28;20415;-91
2023/10/24 05:13:34;;;;;;;9.32;1.70;;;;;;;9.43;100.00;98527.00;5058227;28;20032;-91
2023/10/24 05:16:00;;;;;;;10.07;1.63;;;;;;;9.42;100.00;98525.38;5053777;28;20090;-92
2023/10/24 05:18:25;;;;;;;3.95;1.60;;;;;;;9.42;100.00;98520.94;5049063;28;20143;-92
2023/10/24 05:20:51;;;;;;;10.90;1.65;;;;;;;9.41;100.00;98518.47;5041725;28;20035;-91
2023/10/24 05:23:17;;;;;;;8.38;1.27;;;;;;;9.41;100.00;98527.19;5052613;28;20037;-92
2023/10/24 05:25:42;;;;;;;8.98;1.90;;;;;;;9.42;100.00;98525.38;5034928;28;20044;-91
2023/10/24 05:28:08;;;;;;;11.30;1.52;;;;;;;9.42;100.00;98517.47;5048529;28;20028;-90
2023/10/24 05:30:38;;;;;;;9.82;1.50;;;;;;;9.49;100.00;98514.91;5034386;28;20067;-91
2023/10/24 05:33:04;;;;;;;6.30;2.20;;;;;;;9.45;100.00;98519.75;5050185;28;20043;-91
2023/10/24 05:35:30;;;;;;;7.38;3.10;;;;;;;9.44;100.00;98520.75;5035752;28;20056;-91
2023/10/24 05:37:55;;;;;;;9.38;2.17;;;;;;;9.44;100.00;98526.03;5067044;28;20032;-92
2023/10/24 05:40:21;;;;;;;7.95;1.70;;;;;;;9.41;100.00;98513.22;5069033;28;20032;-91
2023/10/24 05:42:47;;;;;;;5.20;1.17;;;;;;;9.39;100.00;98513.38;5042880;28;20028;-91
2023/10/24 05:45:13;;;;;;;4.82;1.40;;;;;;;9.37;100.00;98515.38;5051872;28;20036;-91
2023/10/24 05:47:38;;;;;;;5.18;1.52;;;;;;;9.41;100.00;98521.13;5038244;28;20032;-91
2023/10/24 05:50:04;;;;;;;6.15;1.70;;;;;;;9.43;100.00;98522.56;5037367;28;20499;-91
2023/10/24 05:52:31;;;;;;;5.45;1.40;;;;;;;9.46;100.00;98528.47;5059809;28;20029;-91
2023/10/24 05:54:57;;;;;;;3.90;1.75;;;;;;;9.46;100.00;98525.84;5054497;28;20020;-90
2023/10/24 05:57:23;;;;;;;4.30;1.38;;;;;;;9.43;100.00;98521.72;5053238;28;20424;-91
2023/10/24 05:59:50;;;;;;;6.35;1.95;;;;;;;9.49;100.00;98525.47;5034730;28;20040;-91
2023/10/24 06:02:16;;;;;;;5.55;2.03;;;;;;;9.49;100.00;98523.63;5051789;28;20036;-91
2023/10/24 06:04:42;;;;;;;4.45;2.00;;;;;;;9.49;100.00;98510.44;5057497;28;20102;-91
2023/10/24 06:07:07;;;;;;;4.22;2.10;;;;;;;9.52;100.00;98519.81;5040718;28;20039;-91
2023/10/24 06:09:33;;;;;;;8.93;2.08;;;;;;;9.48;100.00;98515.91;5058009;28;20052;-91
2023/10/24 06:11:59;;;;;;;3.75;1.83;;;;;;;9.47;100.00;98520.38;5054718;28;20481;-92
2023/10/24 06:14:24;;;;;;;8.15;1.88;;;;;;;9.46;100.00;98521.34;5038927;28;20388;-93
2023/10/24 06:16:50;;;;;;;3.75;1.58;;;;;;;9.49;100.00;98513.06;5063924;28;20029;-91
2023/10/24 06:19:16;;;;;;;18.55;1.60;;;;;;;9.49;100.00;98518.34;5064577;28;20043;-92
2023/10/24 06:21:41;;;;;;;6.65;1.20;;;;;;;9.46;100.00;98513.44;5045294;28;20090;-93
2023/10/24 06:24:07;;;;;;;7.40;1.55;;;;;;;9.42;100.00;98513.03;5044175;28;20059;-92
2023/10/24 06:26:33;;;;;;;3.78;1.45;;;;;;;9.40;100.00;98511.56;5078118;28;20055;-93
2023/10/24 06:28:59;;;;;;;10.20;1.55;;;;;;;9.39;100.00;98507.28;5047575;28;20028;-92
2023/10/24 06:31:26;;;;;;;8.82;1.90;;;;;;;9.39;100.00;98509.94;5045518;28;20058;-93
2023/10/24 06:33:52;;;;;;;3.00;1.42;;;;;;;9.38;100.00;98505.66;5049241;28;20068;-92
2023/10/24 06:36:17;;;;;;;18.90;1.77;;;;;;;9.38;100.00;98500.41;5073081;28;20060;-92
2023/10/24 06:38:43;;;;;;;6.07;1.52;;;;;;;9.41;100.00;98505.28;5041456;28;20078;-92
2023/10/24 06:41:09;;;;;;;24.83;2.05;;;;;;;9.39;100.00;98502.84;5047522;28;20089;-92
2023/10/24 06:43:35;;;;;;;104.03;3.22;;;;;;;9.41;100.00;98516.63;5075230;28;20123;-93
2023/10/24 06:46:04;;;;;;;85.10;3.35;;;;;;;9.41;100.00;98521.91;5060219;28;20040;-93
2023/10/24 06:48:31;;;;;;;30.38;2.80;;;;;;;9.37;100.00;98517.19;5060163;28;20032;-92
2023/10/24 06:50:57;;;;;;;20.83;2.65;;;;;;;9.35;100.00;98512.09;5060009;28;20050;-92
2023/10/24 06:53:23;;;;;;;32.65;2.95;;;;;;;9.34;100.00;98509.66;5043927;28;20039;-92
2023/10/24 06:55:49;;;;;;;4.05;2.42;;;;;;;9.35;100.00;98512.09;5042897;28;20094;-92
2023/10/24 06:58:14;;;;;;;5.28;2.45;;;;;;;9.38;100.00;98524.13;5078022;28;20024;-91
2023/10/24 07:00:40;;;;;;;3.83;1.67;;;;;;;9.43;100.00;98527.84;5073967;28;20032;-90
2023/10/24 07:03:06;;;;;;;20.63;2.60;;;;;;;9.46;100.00;98528.47;5040413;28;20027;-90
2023/10/24 07:05:32;;;;;;;68.38;4.07;;;;;;;9.39;100.00;98523.94;5052054;28;20986;-90
2023/10/24 07:07:58;;;;;;;9.10;2.70;;;;;;;9.34;100.00;98520.19;5046841;28;20032;-90
2023/10/24 07:10:24;;;;;;;2.40;2.20;;;;;;;9.30;100.00;98519.78;5052633;28;20498;-93
2023/10/24 07:12:49;;;;;;;4.50;2.40;;;;;;;9.26;100.00;98519.31;5042821;28;20042;-92
2023/10/24 07:15:15;;;;;;;3.95;2.63;;;;;;;9.29;100.00;98515.47;5039231;28;20036;-93
2023/10/24 07:17:41;;;;;;;8.93;2.40;;;;;;;9.30;100.00;98512.66;5067770;28;20034;-93
2023/10/24 07:20:07;;;;;;;7.00;2.13;;;;;;;9.28;100.00;98512.06;5065480;28;20121;-89
2023/10/24 07:22:33;;;;;;;5.60;2.08;;;;;;;9.32;100.00;98509.03;5038085;28;20080;-89
2023/10/24 07:24:58;;;;;;;4.00;2.22;;;;;;;9.37;100.00;98504.00;5053659;28;20128;-94
2023/10/24 07:27:24;;;;;;;7.78;2.53;;;;;;;9.33;100.00;98510.66;5059560;28;20040;-93
2023/10/24 07:29:50;;;;;;;7.35;3.05;;;;;;;9.28;100.00;98509.41;5040349;28;20029;-93
2023/10/24 07:32:16;;;;;;;9.98;2.75;;;;;;;9.28;100.00;98516.50;5043328;28;20032;-91
2023/10/24 07:34:41;;;;;;;11.75;2.10;;;;;;;9.31;100.00;98516.13;5056709;28;20466;-93
2023/10/24 07:37:08;;;;;;;9.23;3.25;;;;;;;9.35;100.00;98519.22;5042655;28;20094;-93
2023/10/24 07:39:34;;;;;;;4.63;2.67;;;;;;;9.36;100.00;98521.66;5032936;28;20396;-93
2023/10/24 07:42:01;;;;;;;15.40;4.13;;;;;;;9.35;100.00;98524.50;5101119;28;20570;-93
2023/10/24 07:44:26;;;;;;;29.77;6.13;;;;;;;9.25;100.00;98524.78;5044757;28;20044;-94
2023/10/24 07:46:52;;;;;;;13.30;4.32;;;;;;;9.17;100.00;98530.97;5042768;28;20035;-93
2023/10/24 07:49:18;;;;;;;18.10;3.72;;;;;;;9.11;100.00;98535.13;5042482;28;20067;-93
2023/10/24 07:51:44;;;;;;;13.98;4.40;;;;;;;9.13;100.00;98534.94;5063324;28;20024;-93
2023/10/24 07:54:11;;;;;;;7.57;3.20;;;;;;;9.13;100.00;98543.69;5027049;28;20024;-92
2023/10/24 07:56:40;;;;;;;13.32;3.10;;;;;;;9.14;100.00;98545.31;5045090;28;20142;-93
2023/10/24 07:59:09;;;;;;;6.85;2.03;;;;;;;9.09;100.00;98544.22;5055580;28;20618;-92
2023/10/24 08:01:36;;;;;;;6.10;1.50;;;;;;;9.06;100.00;98540.94;5043399;28;20044;-93
2023/10/24 08:04:02;;;;;;;5.35;1.80;;;;;;;9.04;100.00;98540.31;5060970;28;20031;-93
2023/10/24 08:06:27;;;;;;;4.30;1.45;;;;;;;9.04;100.00;98542.13;5059172;28;20070;-93
2023/10/24 08:08:53;;;;;;;5.43;1.42;;;;;;;9.06;100.00;98545.41;5038921;28;20057;-90
2023/10/24 08:11:19;;;;;;;9.93;3.08;;;;;;;9.16;100.00;98545.94;5085877;28;20476;-90
2023/10/24 08:13:44;;;;;;;13.55;4.10;;;;;;;9.17;100.00;98539.66;5045849;28;20668;-89
2023/10/24 08:16:10;;;;;;;5.85;2.80;;;;;;;9.17;100.00;98542.31;5052350;28;20048;-93
2023/10/24 08:18:37;;;;;;;14.77;3.47;;;;;;;9.29;100.00;98545.31;5059760;28;20146;-93
2023/10/24 08:21:03;;;;;;;8.88;3.75;;;;;;;9.34;100.00;98541.28;5056050;28;20097;-93
2023/10/24 08:23:29;;;;;;;11.48;3.42;;;;;;;9.42;100.00;98538.56;5057692;28;20457;-94
2023/10/24 08:25:56;;;;;;;11.25;3.83;;;;;;;9.47;100.00;98538.84;5038658;28;20538;-93
2023/10/24 08:28:23;;;;;;;17.58;6.15;;;;;;;9.54;100.00;98545.00;5041751;28;20038;-93
2023/10/24 08:30:48;;;;;;;20.48;7.07;;;;;;;9.59;100.00;98541.81;5037556;28;20427;-89
2023/10/24 08:33:16;;;;;;;17.13;5.10;;;;;;;9.64;100.00;98551.78;5039931;28;20105;-89
2023/10/24 08:35:44;;;;;;;14.93;5.53;;;;;;;9.72;100.00;98559.59;5056057;28;20036;-93
2023/10/24 08:38:10;;;;;;;9.50;3.95;;;;;;;9.73;100.00;98545.41;5062893;28;20695;-93
2023/10/24 08:40:36;;;;;;;9.90;2.50;;;;;;;9.77;100.00;98551.13;5055103;28;20037;-93
2023/10/24 08:43:02;;;;;;;10.30;2.40;;;;;;;9.82;100.00;98550.56;5072805;28;20115;-93
2023/10/24 08:45:30;;;;;;;9.95;2.03;;;;;;;9.86;100.00;98560.56;5058174;28;20162;-94
2023/10/24 08:47:57;;;;;;;6.50;2.15;;;;;;;9.84;100.00;98549.41;5042832;28;20039;-93
2023/10/24 08:50:23;;;;;;;12.27;3.47;;;;;;;9.89;100.00;98557.56;5074187;28;20028;-94
2023/10/24 08:52:48;;;;;;;10.18;3.58;;;;;;;9.87;100.00;98554.31;5048030;28;20028;-93
2023/10/24 08:55:14;;;;;;;5.18;1.45;;;;;;;9.90;100.00;98551.28;5055027;28;20080;-93
2023/10/24 08:57:42;;;;;;;2.85;1.23;;;;;;;9.93;100.00;98552.72;5039217;28;20036;-94
2023/10/24 09:00:10;;;;;;;8.38;1.40;;;;;;;9.95;100.00;98557.81;5049750;28;20040;-93
2023/10/24 09:02:38;;;;;;;5.07;1.50;;;;;;;10.02;100.00;98559.53;5038049;28;20081;-95
2023/10/24 09:05:05;;;;;;;5.10;1.45;;;;;;;10.15;100.00;98555.38;5027095;28;20053;-95
2023/10/24 09:07:31;;;;;;;4.53;1.40;;;;;;;10.24;100.00;98554.25;5057209;28;20126;-94
2023/10/24 09:09:57;;;;;;;3.13;1.33;;;;;;;10.35;100.00;98557.41;5046494;28;20036;-92
2023/10/24 09:12:23;;;;;;;7.00;1.52;;;;;;;10.44;100.00;98561.53;5047066;28;20511;-92
2023/10/24 09:14:48;;;;;;;3.95;1.50;;;;;;;10.49;100.00;98553.06;5037628;28;20071;-92
2023/10/24 09:17:15;;;;;;;5.05;1.40;;;;;;;10.53;100.00;98560.41;5063584;28;20793;-93
2023/10/24 09:19:42;;;;;;;2.63;1.00;;;;;;;10.50;100.00;98559.97;5041352;28;20032;-89
2023/10/24 09:22:08;;;;;;;3.28;1.20;;;;;;;10.48;100.00;98562.81;5036696;28;20043;-89
2023/10/24 09:24:37;;;;;;;3.17;1.25;;;;;;;10.48;100.00;98557.53;5051898;28;20039;-93
2023/10/24 09:27:03;;;;;;;4.13;1.20;;;;;;;10.50;100.00;98552.88;5055041;28;20065;-92
2023/10/24 09:29:31;;;;;;;3.33;1.02;;;;;;;10.59;100.00;98555.41;5045129;28;20394;-94
2023/10/24 09:31:58;;;;;;;4.95;0.90;;;;;;;10.60;100.00;98554.38;5035548;28;20071;-93
2023/10/24 09:34:24;;;;;;;3.78;0.90;;;;;;;10.63;100.00;98565.38;5041239;28;20516;-90
2023/10/24 09:36:50;;;;;;;9.00;0.80;;;;;;;10.64;100.00;98555.59;5047288;28;20036;-89
2023/10/24 09:39:16;;;;;;;3.22;0.57;;;;;;;10.66;100.00;98556.25;5029692;28;20024;-93
2023/10/24 09:41:44;;;;;;;2.15;0.50;;;;;;;10.78;100.00;98561.84;5058843;28;20396;-91
2023/10/24 09:44:10;;;;;;;4.90;0.70;;;;;;;10.93;100.00;98559.06;5086067;28;20531;-92
2023/10/24 09:46:37;;;;;;;2.25;0.70;;;;;;;11.08;100.00;98561.63;5057389;28;20095;-92
2023/10/24 09:49:07;;;;;;;2.17;0.68;;;;;;;11.10;100.00;98559.59;5049087;28;20037;-94
2023/10/24 09:51:37;;;;;;;5.55;0.50;;;;;;;11.15;100.00;98556.34;5062255;28;20062;-91
2023/10/24 09:54:04;;;;;;;3.85;0.60;;;;;;;11.23;100.00;98568.59;5070740;28;20115;-89
2023/10/24 09:56:32;;;;;;;2.58;0.70;;;;;;;11.16;100.00;98566.72;5061015;28;20075;-89
2023/10/24 09:58:58;;;;;;;1.98;0.60;;;;;;;11.22;100.00;98572.25;5051295;28;20048;-90
2023/10/24 10:01:27;;;;;;;3.90;0.60;;;;;;;11.23;100.00;98564.13;5052624;28;20511;-89
2023/10/24 10:03:56;;;;;;;0.28;0.28;;;;;;;11.22;100.00;98569.63;5056641;28;20088;-89
2023/10/24 10:06:26;;;;;;;2.92;0.50;;;;;;;11.29;100.00;98568.63;5061119;28;20489;-92
2023/10/24 10:08:56;;;;;;;3.70;0.50;;;;;;;11.28;100.00;98561.72;5058205;28;20036;-91
2023/10/24 10:11:25;;;;;;;2.13;0.40;;;;;;;11.23;100.00;98564.13;5058146;28;20028;-92
2023/10/24 10:13:54;;;;;;;2.45;0.30;;;;;;;11.22;100.00;98573.09;5049589;28;20393;-91
2023/10/24 10:16:44;;;;;;;2.70;0.43;;;;;;;11.27;100.00;98570.69;5045896;28;20093;-91
2023/10/24 10:19:17;;;;;;;0.52;0.28;;;;;;;11.33;100.00;98565.59;5047494;28;20029;-89
2023/10/24 10:22:01;;;;;;;2.40;0.40;;;;;;;11.39;100.00;98575.41;5037344;28;20148;-89
2023/10/24 10:24:32;;;;;;;6.72;0.50;;;;;;;11.38;100.00;98568.47;5054628;28;20120;-91
2023/10/24 10:27:24;;;;;;;3.95;0.30;;;;;;;11.46;100.00;98568.31;5074422;28;20067;-90
2023/10/24 10:30:15;;;;;;;3.72;0.40;;;;;;;11.49;100.00;98561.81;5056374;28;20090;-90
2023/10/24 10:32:44;;;;;;;1.23;0.40;;;;;;;11.60;100.00;98565.72;5041568;28;20032;-90
2023/10/24 10:35:11;;;;;;;1.85;0.30;;;;;;;11.67;100.00;98558.63;5040484;28;20028;-91
2023/10/24 10:37:37;;;;;;;2.25;0.50;;;;;;;11.73;100.00;98560.50;5061859;28;20476;-91
2023/10/24 10:40:15;;;;;;;2.85;0.30;;;;;;;11.87;100.00;98563.16;5080125;28;20082;-91
2023/10/24 10:42:48;;;;;;;2.17;0.40;;;;;;;11.94;100.00;98557.91;5062101;28;20040;-91
2023/10/24 10:45:27;;;;;;;1.02;0.40;;;;;;;11.98;100.00;98559.94;5052329;28;20044;-91
2023/10/24 10:48:06;;;;;;;2.00;0.40;;;;;;;12.13;100.00;98561.63;5057494;28;20039;-91
2023/10/24 10:50:33;;;;;;;5.53;0.40;;;;;;;12.13;100.00;98562.47;5055228;28;20036;-90
2023/10/24 10:53:42;;;;;;;2.75;0.40;;;;;;;12.02;100.00;98565.66;5059814;28;20037;-90
2023/10/24 10:56:20;;;;;;;0.77;0.20;;;;;;;11.89;100.00;98561.13;5067205;28;20086;-90
2023/10/24 10:58:49;;;;;;;0.98;0.22;;;;;;;11.79;100.00;98559.69;5037977;28;20116;-91
2023/10/24 11:01:47;;;;;;;0.85;0.40;;;;;;;11.72;100.00;98560.69;5055963;28;20036;-91
2023/10/24 11:04:14;;;;;;;2.28;0.45;;;;;;;11.59;100.00;98564.94;5034045;28;20663;-78
2023/10/24 11:06:57;;;;;;;2.63;0.45;;;;;;;11.61;100.00;98570.03;5054981;28;20029;-89
2023/10/24 11:09:34;;;;;;;2.17;0.30;;;;;;;11.68;100.00;98575.31;5072715;28;20036;-92
2023/10/24 11:12:21;;;;;;;2.03;0.38;;;;;;;11.83;100.00;98568.06;5058569;28;20036;-93
2023/10/24 11:15:16;;;;;;;2.25;0.40;;;;;;;12.02;100.00;98563.81;5050991;28;20124;-92
2023/10/24 11:17:43;;;;;;;0.55;0.52;;;;;;;12.07;100.00;98560.56;5059432;28;20055;-88
2023/10/24 11:20:09;;;;;;;1.35;0.40;;;;;;;12.13;100.00;98561.63;5070662;28;20366;-89
2023/10/24 11:22:37;;;;;;;1.40;0.30;;;;;;;12.18;100.00;98561.84;5052457;28;20052;-92
2023/10/24 11:25:10;;;;;;;2.53;0.57;;;;;;;12.28;100.00;98564.09;5065447;28;20032;-89
2023/10/24 11:27:37;;;;;;;3.38;0.38;;;;;;;12.36;100.00;98555.94;5017903;28;20131;-90